createdAt,value
2023-05-04T00:01:37.057Z,64.65
2023-05-04T00:07:00.382Z,65.03
2023-05-04T00:12:22.080Z,64.91
2023-05-04T00:17:43.929Z,65.12
2023-05-04T00:23:06.455Z,64.95
2023-05-04T00:28:28.055Z,65.47
2023-05-04T00:33:50.030Z,65.70
2023-05-04T00:39:12.093Z,65.71
2023-05-04T00:44:34.813Z,65.97
2023-05-04T00:49:57.321Z,66.19
2023-05-04T00:55:19.446Z,66.74
2023-05-04T01:00:41.531Z,66.50
2023-05-04T01:06:39.987Z,66.78
2023-05-04T01:12:21.728Z,67.00
2023-05-04T01:17:43.685Z,66.54
2023-05-04T01:23:05.491Z,67.26
2023-05-04T01:28:38.099Z,66.92
2023-05-04T01:34:00.358Z,67.69
2023-05-04T01:39:23.002Z,67.79
2023-05-04T01:44:44.721Z,68.04
2023-05-04T01:50:07.126Z,68.08
2023-05-04T01:55:29.195Z,68.37
2023-05-04T02:00:51.055Z,68.55
2023-05-04T02:06:13.445Z,68.72
2023-05-04T02:11:35.031Z,68.46
2023-05-04T02:16:56.821Z,69.00
2023-05-04T02:22:18.367Z,68.91
2023-05-04T02:27:40.915Z,68.90
2023-05-04T02:33:02.929Z,68.73
2023-05-04T02:38:24.347Z,68.56
2023-05-04T02:43:46.335Z,68.27
2023-05-04T02:49:08.530Z,68.33
2023-05-04T02:54:30.001Z,68.50
2023-05-04T02:59:51.834Z,68.55
2023-05-04T03:05:13.945Z,68.71
2023-05-04T03:10:35.783Z,68.25
2023-05-04T03:15:58.501Z,68.17
2023-05-04T03:21:19.957Z,67.66
2023-05-04T03:26:45.699Z,67.64
2023-05-04T03:32:07.994Z,67.68
2023-05-04T03:37:30.171Z,67.63
2023-05-04T03:42:52.631Z,67.73
2023-05-04T03:48:14.966Z,67.81
2023-05-04T03:53:39.082Z,67.71
2023-05-04T03:59:01.885Z,67.72
2023-05-04T04:04:25.547Z,67.52
2023-05-04T04:09:48.763Z,67.61
2023-05-04T04:15:10.900Z,67.47
2023-05-04T04:20:33.140Z,67.06
2023-05-04T04:25:54.649Z,66.26
2023-05-04T04:31:19.492Z,64.52
2023-05-04T04:36:41.429Z,63.27
2023-05-04T04:42:03.922Z,62.96
2023-05-04T04:47:25.675Z,62.49
2023-05-04T04:52:47.347Z,60.35
2023-05-04T04:58:09.479Z,60.35
2023-05-04T05:03:32.081Z,58.38
2023-05-04T05:08:53.657Z,57.45
2023-05-04T05:14:15.560Z,57.36
2023-05-04T05:19:38.144Z,56.57
2023-05-04T05:25:00.224Z,55.93
2023-05-04T05:30:22.027Z,55.71
2023-05-04T05:35:48.361Z,54.93
2023-05-04T05:41:13.016Z,54.32
2023-05-04T05:46:34.598Z,54.02
2023-05-04T05:51:57.215Z,53.23
2023-05-04T05:57:20.721Z,52.16
2023-05-04T06:02:42.551Z,52.09
2023-05-04T06:08:04.435Z,50.88
2023-05-04T06:13:26.568Z,50.54
2023-05-04T06:18:48.429Z,49.47
2023-05-04T06:24:10.004Z,47.64
2023-05-04T06:29:33.756Z,45.94
2023-05-04T06:34:55.759Z,45.23
2023-05-04T06:40:18.307Z,44.19
2023-05-04T06:45:40.331Z,43.32
2023-05-04T06:51:03.065Z,42.72
2023-05-04T06:56:25.063Z,43.03
2023-05-04T07:01:47.811Z,42.48
2023-05-04T07:07:09.484Z,41.74
2023-05-04T07:12:31.335Z,40.51
2023-05-04T07:17:53.036Z,40.34
2023-05-04T07:23:15.165Z,39.45
2023-05-04T07:28:37.262Z,39.55
2023-05-04T07:33:59.340Z,39.33
2023-05-04T07:39:23.486Z,38.50
2023-05-04T07:44:45.164Z,38.64
2023-05-04T07:50:09.651Z,38.04
2023-05-04T07:55:31.624Z,38.63
2023-05-04T08:00:53.200Z,37.59
2023-05-04T08:06:15.119Z,37.41
2023-05-04T08:11:37.981Z,37.52
2023-05-04T08:17:00.738Z,35.96
2023-05-04T08:22:22.618Z,34.94
2023-05-04T08:27:45.472Z,35.13
2023-05-04T08:33:08.492Z,35.88
2023-05-04T08:38:33.506Z,35.59
2023-05-04T08:43:55.494Z,35.24
2023-05-04T08:49:17.426Z,35.16
2023-05-04T08:54:40.076Z,35.19
2023-05-04T09:00:02.195Z,35.11
2023-05-04T09:05:23.955Z,35.66
2023-05-04T09:10:45.893Z,35.44
2023-05-04T09:16:08.321Z,35.13
2023-05-04T09:21:31.261Z,34.92
2023-05-04T09:27:13.173Z,34.89
2023-05-04T09:32:55.872Z,34.40
2023-05-04T09:38:28.724Z,34.14
2023-05-04T09:43:50.651Z,34.52
2023-05-04T09:49:13.887Z,35.21
2023-05-04T09:54:41.537Z,35.25
2023-05-04T10:00:04.632Z,35.39
2023-05-04T10:05:30.863Z,34.74
2023-05-04T10:10:54.462Z,33.99
2023-05-04T10:16:44.071Z,34.05
2023-05-04T10:22:14.732Z,34.19
2023-05-04T10:27:43.339Z,34.01
2023-05-04T10:33:05.237Z,34.82
2023-05-04T10:38:38.562Z,33.89
2023-05-04T10:44:04.727Z,34.13
2023-05-04T10:49:27.055Z,34.23
2023-05-04T10:55:01.546Z,33.78
2023-05-04T11:00:24.770Z,33.30
2023-05-04T11:05:50.828Z,33.01
2023-05-04T11:11:13.140Z,32.60
2023-05-04T11:16:34.980Z,32.40
2023-05-04T11:21:57.007Z,31.80
2023-05-04T11:27:27.659Z,32.66
2023-05-04T11:32:54.239Z,32.62
2023-05-04T11:38:20.289Z,32.09
2023-05-04T11:43:44.855Z,31.46
2023-05-04T11:49:06.820Z,31.84
2023-05-04T11:54:28.744Z,31.38
2023-05-04T11:59:50.894Z,31.54
2023-05-04T12:05:14.130Z,32.02
2023-05-04T12:10:36.062Z,31.41
2023-05-04T12:16:08.632Z,31.37
2023-05-04T12:21:31.431Z,31.65
2023-05-04T12:26:53.067Z,31.26
2023-05-04T12:32:15.154Z,30.58
2023-05-04T12:37:39.194Z,30.58
2023-05-04T12:43:01.262Z,31.20
2023-05-04T12:48:23.074Z,30.84
2023-05-04T12:53:44.868Z,30.18
2023-05-04T12:59:06.748Z,30.90
2023-05-04T13:04:28.573Z,30.67
2023-05-04T13:09:50.399Z,30.37
2023-05-04T13:15:13.944Z,30.26
2023-05-04T13:20:35.694Z,30.20
2023-05-04T13:25:57.601Z,29.92
2023-05-04T13:31:21.786Z,29.96
2023-05-04T13:36:43.989Z,29.95
2023-05-04T13:42:05.904Z,30.00
2023-05-04T13:47:27.748Z,29.67
2023-05-04T13:52:49.757Z,29.19
2023-05-04T13:58:11.809Z,29.75
2023-05-04T14:03:33.841Z,30.34
2023-05-04T14:08:57.560Z,30.25
2023-05-04T14:14:19.290Z,29.81
2023-05-04T14:19:41.313Z,30.59
2023-05-04T14:25:06.181Z,30.63
2023-05-04T14:30:28.075Z,30.44
2023-05-04T14:35:49.804Z,30.48
2023-05-04T14:41:11.634Z,29.70
2023-05-04T14:46:33.893Z,29.65
2023-05-04T14:51:55.892Z,29.93
2023-05-04T14:57:18.324Z,29.74
2023-05-04T15:02:42.292Z,29.91
2023-05-04T15:08:07.684Z,30.27
2023-05-04T15:13:29.436Z,29.61
2023-05-04T15:18:51.377Z,29.59
2023-05-04T15:24:13.188Z,29.74
2023-05-04T15:29:40.567Z,29.79
2023-05-04T15:35:06.335Z,30.18
2023-05-04T15:40:28.907Z,30.06
2023-05-04T15:45:52.852Z,29.75
2023-05-04T15:51:15.012Z,30.04
2023-05-04T15:56:36.810Z,30.62
2023-05-04T16:01:58.510Z,31.00
2023-05-04T16:07:20.361Z,31.02
2023-05-04T16:12:42.112Z,30.33
2023-05-04T16:18:04.391Z,30.56
2023-05-04T16:23:27.130Z,31.09
2023-05-04T16:28:52.197Z,30.91
2023-05-04T16:34:16.341Z,31.43
2023-05-04T16:39:38.498Z,31.48
2023-05-04T16:45:01.062Z,31.80
2023-05-04T16:50:23.275Z,32.10
2023-05-04T16:55:46.976Z,32.51
2023-05-04T17:01:10.342Z,32.75
2023-05-04T17:06:33.136Z,33.23
2023-05-04T17:11:55.220Z,33.60
2023-05-04T17:17:17.393Z,33.70
2023-05-04T17:22:38.940Z,33.81
2023-05-04T17:28:01.149Z,34.20
2023-05-04T17:33:23.947Z,34.54
2023-05-04T17:38:45.630Z,34.73
2023-05-04T17:44:07.438Z,35.09
2023-05-04T17:49:29.483Z,35.14
2023-05-04T17:54:54.012Z,35.79
2023-05-04T18:00:16.535Z,36.43
2023-05-04T18:05:41.309Z,36.85
2023-05-04T18:11:03.404Z,37.66
2023-05-04T18:16:25.765Z,38.35
2023-05-04T18:21:48.502Z,39.45
2023-05-04T18:27:10.436Z,40.25
2023-05-04T18:32:32.470Z,40.61
2023-05-04T18:37:56.366Z,41.22
2023-05-04T18:43:21.104Z,41.67
2023-05-04T18:48:42.731Z,42.03
2023-05-04T18:54:04.968Z,42.37
2023-05-04T18:59:27.098Z,42.71
2023-05-04T19:04:50.805Z,42.89
2023-05-04T19:10:12.674Z,43.00
2023-05-04T19:15:34.512Z,43.10
2023-05-04T19:20:56.318Z,43.41
2023-05-04T19:26:18.242Z,43.50
2023-05-04T19:31:43.757Z,43.64
2023-05-04T19:37:05.613Z,43.88
2023-05-04T19:42:28.565Z,44.03
2023-05-04T19:47:53.479Z,44.15
2023-05-04T19:53:16.790Z,44.17
2023-05-04T19:58:39.056Z,44.45
2023-05-04T20:04:03.393Z,44.51
2023-05-04T20:09:25.627Z,44.70
2023-05-04T20:14:47.350Z,44.56
2023-05-04T20:20:10.883Z,44.79
2023-05-04T20:25:32.812Z,44.94
2023-05-04T20:30:56.690Z,45.15
2023-05-04T20:36:18.488Z,45.23
2023-05-04T20:41:40.798Z,45.53
2023-05-04T20:47:02.763Z,45.84
2023-05-04T20:52:28.073Z,46.08
2023-05-04T20:57:52.318Z,46.09
2023-05-04T21:03:14.875Z,46.29
2023-05-04T21:08:39.681Z,46.51
2023-05-04T21:14:01.237Z,46.32
2023-05-04T21:19:23.138Z,46.15
2023-05-04T21:24:49.516Z,46.35
2023-05-04T21:30:11.472Z,46.51
2023-05-04T21:35:33.360Z,46.61
2023-05-04T21:40:55.277Z,46.71
2023-05-04T21:46:17.146Z,47.14
2023-05-04T21:51:38.740Z,47.03
2023-05-04T21:57:01.266Z,47.33
2023-05-04T22:02:25.024Z,48.02
2023-05-04T22:07:48.832Z,48.33
2023-05-04T22:13:11.698Z,48.72
2023-05-04T22:18:34.096Z,49.45
2023-05-04T22:23:55.929Z,49.98
2023-05-04T22:29:17.982Z,50.21
2023-05-04T22:34:40.495Z,50.43
2023-05-04T22:40:06.684Z,50.63
2023-05-04T22:45:28.468Z,50.86
2023-05-04T22:50:50.993Z,51.19
2023-05-04T22:56:12.942Z,51.26
2023-05-04T23:01:35.046Z,51.40
2023-05-04T23:06:57.188Z,51.46
2023-05-04T23:12:18.605Z,51.95
2023-05-04T23:17:41.279Z,51.37
2023-05-04T23:23:03.369Z,51.90
2023-05-04T23:28:25.149Z,52.39
2023-05-04T23:33:51.363Z,52.75
2023-05-04T23:39:13.055Z,53.50
2023-05-04T23:44:34.978Z,53.74
2023-05-04T23:49:56.789Z,54.01
2023-05-04T23:55:18.779Z,54.59
